createdAt,value
2023-05-20T00:02:09.115Z,7.33
2023-05-20T00:05:11.352Z,6.23
2023-05-20T00:08:12.712Z,5.90
2023-05-20T00:11:14.235Z,6.95
2023-05-20T00:14:15.732Z,6.18
2023-05-20T00:17:17.325Z,6.83
2023-05-20T00:20:19.461Z,5.43
2023-05-20T00:23:20.835Z,6.00
2023-05-20T00:26:22.481Z,5.47
2023-05-20T00:29:23.997Z,5.50
2023-05-20T00:32:25.467Z,5.90
2023-05-20T00:35:28.159Z,6.03
2023-05-20T00:38:29.606Z,6.68
2023-05-20T00:41:31.953Z,6.75
2023-05-20T00:44:33.439Z,5.60
2023-05-20T00:47:36.616Z,5.47
2023-05-20T00:50:39.369Z,5.60
2023-05-20T00:53:41.691Z,5.47
2023-05-20T00:56:43.273Z,6.00
2023-05-20T00:59:45.004Z,5.85
2023-05-20T01:02:46.474Z,6.20
2023-05-20T01:05:49.868Z,6.53
2023-05-20T01:08:51.263Z,5.78
2023-05-20T01:11:59.044Z,5.95
2023-05-20T01:15:06.933Z,6.40
2023-05-20T01:18:09.920Z,6.00
2023-05-20T01:21:15.169Z,6.53
2023-05-20T01:24:17.185Z,7.43
2023-05-20T01:27:20.157Z,6.75
2023-05-20T01:30:22.509Z,6.53
2023-05-20T01:33:25.745Z,5.83
2023-05-20T01:36:28.259Z,8.80
2023-05-20T01:39:31.614Z,6.15
2023-05-20T01:42:34.750Z,5.80
2023-05-20T01:45:37.445Z,6.63
2023-05-20T01:48:38.992Z,6.47
2023-05-20T01:51:40.621Z,5.97
2023-05-20T01:54:42.597Z,5.60
2023-05-20T01:57:44.105Z,7.45
2023-05-20T02:00:45.479Z,5.97
2023-05-20T02:03:46.854Z,6.40
2023-05-20T02:06:48.614Z,6.67
2023-05-20T02:09:50.620Z,8.48
2023-05-20T02:12:52.116Z,6.78
2023-05-20T02:15:53.547Z,7.32
2023-05-20T02:18:55.222Z,8.17
2023-05-20T02:21:56.739Z,6.93
2023-05-20T02:24:58.706Z,7.40
2023-05-20T02:28:00.227Z,6.43
2023-05-20T02:31:01.522Z,8.18
2023-05-20T02:34:03.653Z,6.80
2023-05-20T02:37:05.146Z,5.63
2023-05-20T02:40:09.540Z,7.57
2023-05-20T02:43:11.065Z,6.70
2023-05-20T02:46:12.696Z,7.88
2023-05-20T02:49:14.225Z,9.77
2023-05-20T02:52:15.731Z,8.60
2023-05-20T02:55:18.023Z,7.13
2023-05-20T02:58:25.665Z,7.60
2023-05-20T03:01:28.417Z,6.95
2023-05-20T03:04:31.010Z,7.63
2023-05-20T03:07:35.667Z,6.57
2023-05-20T03:10:38.298Z,6.88
2023-05-20T03:13:39.703Z,6.93
2023-05-20T03:16:41.081Z,7.15
2023-05-20T03:19:42.635Z,7.70
2023-05-20T03:22:44.021Z,7.17
2023-05-20T03:25:46.205Z,6.72
2023-05-20T03:28:47.601Z,6.55
2023-05-20T03:31:48.980Z,6.90
2023-05-20T03:34:50.510Z,6.27
2023-05-20T03:37:52.469Z,7.00
2023-05-20T03:40:54.659Z,6.85
2023-05-20T03:43:56.199Z,7.22
2023-05-20T03:46:57.670Z,7.07
2023-05-20T03:49:59.239Z,7.27
2023-05-20T03:53:00.712Z,8.37
2023-05-20T03:56:02.982Z,8.70
2023-05-20T03:59:05.136Z,6.90
2023-05-20T04:02:06.461Z,8.13
2023-05-20T04:05:09.982Z,7.93
2023-05-20T04:08:12.821Z,6.87
2023-05-20T04:11:14.985Z,7.88
2023-05-20T04:14:16.410Z,6.55
2023-05-20T04:17:17.900Z,5.78
2023-05-20T04:20:19.744Z,7.80
2023-05-20T04:23:21.055Z,7.00
2023-05-20T04:26:23.191Z,7.23
2023-05-20T04:29:24.909Z,7.73
2023-05-20T04:32:26.502Z,7.03
2023-05-20T04:35:28.806Z,7.50
2023-05-20T04:38:31.649Z,8.38
2023-05-20T04:41:34.723Z,8.53
2023-05-20T04:44:36.238Z,8.00
2023-05-20T04:47:38.145Z,8.38
2023-05-20T04:50:41.253Z,8.48
2023-05-20T04:53:44.668Z,6.90
2023-05-20T04:56:48.276Z,7.17
2023-05-20T04:59:49.603Z,8.77
2023-05-20T05:02:50.967Z,8.48
2023-05-20T05:05:55.896Z,7.95
2023-05-20T05:08:57.264Z,7.72
2023-05-20T05:11:59.349Z,7.43
2023-05-20T05:15:00.673Z,9.43
2023-05-20T05:18:02.194Z,9.00
2023-05-20T05:21:04.984Z,9.43
2023-05-20T05:24:06.782Z,9.13
2023-05-20T05:27:08.960Z,7.60
2023-05-20T05:30:10.962Z,8.73
2023-05-20T05:33:14.310Z,8.95
2023-05-20T05:36:15.793Z,9.60
2023-05-20T05:39:17.098Z,11.02
2023-05-20T05:42:19.189Z,8.10
2023-05-20T05:45:20.515Z,8.83
2023-05-20T05:48:22.440Z,9.68
2023-05-20T05:51:24.938Z,9.15
2023-05-20T05:54:26.438Z,10.20
2023-05-20T05:57:28.533Z,8.47
2023-05-20T06:00:29.936Z,9.97
2023-05-20T06:03:31.393Z,9.10
2023-05-20T06:06:33.487Z,9.38
2023-05-20T06:09:34.895Z,9.77
2023-05-20T06:12:37.031Z,9.50
2023-05-20T06:15:39.865Z,9.03
2023-05-20T06:18:41.389Z,10.43
2023-05-20T06:21:42.864Z,9.63
2023-05-20T06:24:44.210Z,9.40
2023-05-20T06:27:46.255Z,9.57
2023-05-20T06:30:47.648Z,8.85
2023-05-20T06:33:49.017Z,8.73
2023-05-20T06:36:50.511Z,9.82
2023-05-20T06:39:53.114Z,7.70
2023-05-20T06:42:55.276Z,8.43
2023-05-20T06:45:56.675Z,9.15
2023-05-20T06:48:58.769Z,12.07
2023-05-20T06:52:00.422Z,9.93
2023-05-20T06:55:02.327Z,10.38
2023-05-20T06:58:05.073Z,10.80
2023-05-20T07:01:06.903Z,11.18
2023-05-20T07:04:08.564Z,9.80
2023-05-20T07:07:10.564Z,8.77
2023-05-20T07:10:12.649Z,9.63
2023-05-20T07:13:15.528Z,9.73
2023-05-20T07:16:17.579Z,9.25
2023-05-20T07:19:19.524Z,9.17
2023-05-20T07:22:21.503Z,10.00
2023-05-20T07:25:23.190Z,9.00
2023-05-20T07:28:25.412Z,8.65
2023-05-20T07:31:27.003Z,9.60
2023-05-20T07:34:28.673Z,9.47
2023-05-20T07:37:30.444Z,10.63
2023-05-20T07:40:32.761Z,9.00
2023-05-20T07:43:36.923Z,10.02
2023-05-20T07:46:42.012Z,10.43
2023-05-20T07:49:46.892Z,9.63
2023-05-20T07:52:56.383Z,8.97
2023-05-20T07:55:59.771Z,9.73
2023-05-20T07:59:04.437Z,9.70
2023-05-20T08:02:07.916Z,8.52
2023-05-20T08:05:11.443Z,9.85
2023-05-20T08:08:14.237Z,9.00
2023-05-20T08:11:17.164Z,8.80
2023-05-20T08:14:21.258Z,7.97
2023-05-20T08:17:24.147Z,8.88
2023-05-20T08:20:27.865Z,8.25
2023-05-20T08:23:31.291Z,12.07
2023-05-20T08:26:35.549Z,8.48
2023-05-20T08:29:39.656Z,8.50
2023-05-20T08:32:42.780Z,9.00
2023-05-20T08:35:46.363Z,9.85
2023-05-20T08:38:49.299Z,9.30
2023-05-20T08:41:52.366Z,9.88
2023-05-20T08:44:57.543Z,7.95
2023-05-20T08:48:01.009Z,10.88
2023-05-20T08:51:05.018Z,8.52
2023-05-20T08:54:09.839Z,8.70
2023-05-20T08:57:13.944Z,7.63
2023-05-20T09:00:20.292Z,9.00
2023-05-20T09:03:24.352Z,8.43
2023-05-20T09:06:27.316Z,8.60
2023-05-20T09:09:30.887Z,10.87
2023-05-20T09:12:33.859Z,9.18
2023-05-20T09:15:39.213Z,7.70
2023-05-20T09:18:43.424Z,9.80
2023-05-20T09:21:48.068Z,7.32
2023-05-20T09:24:52.125Z,7.53
2023-05-20T09:27:54.976Z,8.23
2023-05-20T09:31:01.004Z,9.20
2023-05-20T09:34:04.783Z,8.32
2023-05-20T09:37:08.543Z,8.95
2023-05-20T09:40:15.281Z,10.93
2023-05-20T09:43:18.641Z,8.43
2023-05-20T09:46:22.954Z,9.20
2023-05-20T09:49:27.197Z,8.32
2023-05-20T09:52:31.120Z,8.60
2023-05-20T09:55:34.777Z,8.95
2023-05-20T09:58:38.033Z,8.57
2023-05-20T10:01:42.324Z,8.67
2023-05-20T10:04:50.232Z,8.85
2023-05-20T10:08:22.985Z,8.25
2023-05-20T10:11:34.514Z,8.98
2023-05-20T10:14:49.615Z,10.07
2023-05-20T10:18:02.625Z,8.47
2023-05-20T10:21:17.020Z,9.63
2023-05-20T10:24:31.310Z,9.40
2023-05-20T10:27:44.115Z,8.88
2023-05-20T10:30:51.254Z,12.23
2023-05-20T10:33:56.071Z,11.13
2023-05-20T10:37:00.351Z,8.38
2023-05-20T10:40:11.209Z,9.93
2023-05-20T10:43:15.460Z,9.75
2023-05-20T10:46:32.519Z,10.87
2023-05-20T10:49:42.271Z,11.47
2023-05-20T10:52:45.201Z,10.07
2023-05-20T10:55:53.408Z,9.85
2023-05-20T10:58:56.317Z,11.05
2023-05-20T11:01:59.235Z,14.33
2023-05-20T11:05:04.553Z,11.07
2023-05-20T11:08:20.536Z,10.35
2023-05-20T11:11:31.464Z,10.13
2023-05-20T11:14:34.277Z,11.88
2023-05-20T11:17:37.182Z,9.53
2023-05-20T11:20:41.335Z,9.00
2023-05-20T11:23:44.206Z,10.18
2023-05-20T11:26:47.134Z,10.18
2023-05-20T11:29:51.949Z,10.13
2023-05-20T11:32:59.318Z,9.13
2023-05-20T11:36:06.535Z,11.47
2023-05-20T11:39:14.853Z,10.68
2023-05-20T11:42:17.745Z,9.48
2023-05-20T11:45:20.482Z,9.15
2023-05-20T11:48:23.646Z,10.30
2023-05-20T11:51:28.698Z,11.43
2023-05-20T11:54:36.496Z,11.25
2023-05-20T11:57:39.279Z,11.73
2023-05-20T12:00:51.332Z,9.23
2023-05-20T12:03:58.182Z,12.33
2023-05-20T12:07:04.050Z,11.77
2023-05-20T12:10:08.294Z,11.88
2023-05-20T12:13:13.407Z,10.48
2023-05-20T12:16:16.328Z,10.85
2023-05-20T12:19:19.152Z,10.97
2023-05-20T12:22:23.427Z,11.48
2023-05-20T12:25:26.484Z,10.82
2023-05-20T12:28:29.296Z,9.85
2023-05-20T12:31:34.618Z,11.73
2023-05-20T12:34:37.915Z,10.37
2023-05-20T12:37:42.890Z,11.93
2023-05-20T12:40:45.810Z,13.18
2023-05-20T12:43:48.678Z,10.35
2023-05-20T12:46:51.720Z,11.35
2023-05-20T12:49:54.636Z,10.87
2023-05-20T12:52:58.762Z,10.73
2023-05-20T12:56:01.781Z,11.73
2023-05-20T12:59:04.564Z,10.95
2023-05-20T13:02:07.427Z,11.00
2023-05-20T13:05:11.309Z,10.17
2023-05-20T13:08:15.583Z,11.38
2023-05-20T13:11:18.459Z,12.50
2023-05-20T13:14:21.714Z,11.30
2023-05-20T13:17:24.528Z,10.45
2023-05-20T13:20:27.490Z,11.30
2023-05-20T13:23:31.726Z,10.32
2023-05-20T13:26:34.480Z,9.93
2023-05-20T13:29:37.205Z,11.20
2023-05-20T13:32:40.015Z,9.02
2023-05-20T13:35:42.841Z,10.27
2023-05-20T13:38:47.017Z,10.13
2023-05-20T13:41:49.842Z,10.00
2023-05-20T13:44:52.721Z,10.23
2023-05-20T13:47:55.711Z,11.43
2023-05-20T13:50:58.592Z,9.17
2023-05-20T13:54:02.705Z,9.82
2023-05-20T13:57:08.160Z,10.15
2023-05-20T14:00:12.020Z,9.68
2023-05-20T14:03:15.043Z,11.43
2023-05-20T14:06:18.940Z,10.47
2023-05-20T14:09:23.416Z,10.32
2023-05-20T14:12:26.354Z,10.82
2023-05-20T14:15:30.641Z,10.00
2023-05-20T14:18:33.389Z,11.50
2023-05-20T14:21:36.311Z,10.45
2023-05-20T14:24:40.434Z,9.47
2023-05-20T14:27:43.322Z,9.70
2023-05-20T14:30:46.292Z,10.20
2023-05-20T14:33:49.308Z,9.68
2023-05-20T14:36:52.377Z,10.68
2023-05-20T14:39:56.758Z,10.97
2023-05-20T14:42:59.728Z,9.57
2023-05-20T14:46:03.944Z,10.07
2023-05-20T14:49:06.742Z,12.23
2023-05-20T14:52:09.669Z,11.10
2023-05-20T14:55:13.892Z,11.03
2023-05-20T14:58:16.681Z,10.07
2023-05-20T15:01:19.654Z,10.02
2023-05-20T15:04:22.453Z,11.60
2023-05-20T15:07:25.196Z,9.27
2023-05-20T15:10:29.454Z,9.13
2023-05-20T15:13:32.204Z,12.50
2023-05-20T15:16:35.171Z,10.98
2023-05-20T15:19:41.243Z,11.82
2023-05-20T15:22:45.889Z,9.27
2023-05-20T15:25:50.544Z,9.30
2023-05-20T15:28:53.522Z,9.70
2023-05-20T15:31:56.435Z,11.05
2023-05-20T15:34:59.990Z,9.63
2023-05-20T15:38:02.820Z,9.55
2023-05-20T15:41:08.096Z,11.97
2023-05-20T15:44:10.876Z,12.33
2023-05-20T15:47:13.683Z,9.93
2023-05-20T15:50:17.212Z,9.50
2023-05-20T15:53:20.218Z,10.13
2023-05-20T15:56:24.539Z,9.73
2023-05-20T15:59:27.317Z,9.30
2023-05-20T16:02:32.859Z,9.27
2023-05-20T16:05:39.081Z,10.70
2023-05-20T16:08:41.976Z,8.57
2023-05-20T16:11:46.200Z,9.93
2023-05-20T16:14:49.020Z,9.53
2023-05-20T16:17:51.869Z,10.02
2023-05-20T16:20:54.640Z,9.52
2023-05-20T16:27:19.262Z,10.73
2023-05-20T16:30:22.175Z,10.50
2023-05-20T16:33:25.140Z,11.38
2023-05-20T16:36:28.042Z,9.68
2023-05-20T16:39:30.784Z,8.30
2023-05-20T16:42:35.051Z,9.13
2023-05-20T16:45:37.927Z,8.87
2023-05-20T16:48:41.191Z,9.48
2023-05-20T16:51:44.139Z,11.07
2023-05-20T16:54:47.084Z,8.52
2023-05-20T16:57:51.492Z,10.53
2023-05-20T17:00:55.060Z,11.30
2023-05-20T17:03:58.003Z,8.80
2023-05-20T17:07:01.654Z,10.63
2023-05-20T17:10:04.849Z,8.88
2023-05-20T17:13:09.131Z,10.33
2023-05-20T17:16:12.950Z,8.97
2023-05-20T17:19:18.003Z,9.55
2023-05-20T17:22:20.822Z,9.23
2023-05-20T17:25:23.585Z,8.70
2023-05-20T17:28:27.812Z,9.87
2023-05-20T17:31:30.589Z,8.50
2023-05-20T17:34:33.483Z,9.07
2023-05-20T17:37:36.858Z,9.70
2023-05-20T17:40:39.662Z,9.57
2023-05-20T17:43:43.836Z,9.35
2023-05-20T17:46:46.820Z,8.88
2023-05-20T17:49:49.691Z,8.93
2023-05-20T17:52:52.460Z,9.70
2023-05-20T17:55:55.223Z,9.15
2023-05-20T17:58:59.651Z,10.05
2023-05-20T18:02:02.513Z,8.98
2023-05-20T18:05:06.668Z,8.52
2023-05-20T18:08:09.464Z,8.37
2023-05-20T18:11:12.247Z,8.52
2023-05-20T18:14:18.748Z,9.57
2023-05-20T18:17:21.589Z,9.02
2023-05-20T18:20:24.521Z,8.48
2023-05-20T18:23:27.458Z,9.73
2023-05-20T18:26:30.311Z,8.70
2023-05-20T18:29:34.554Z,9.38
2023-05-20T18:32:38.793Z,8.20
2023-05-20T18:35:41.803Z,8.95
2023-05-20T18:38:45.094Z,10.57
2023-05-20T18:41:48.190Z,9.60
2023-05-20T18:44:52.484Z,9.63
2023-05-20T18:47:57.527Z,10.68
2023-05-20T18:51:00.513Z,8.32
2023-05-20T18:54:03.398Z,10.43
2023-05-20T18:57:07.997Z,8.60
2023-05-20T19:00:13.480Z,10.48
2023-05-20T19:03:17.115Z,8.65
2023-05-20T19:06:19.963Z,8.90
2023-05-20T19:09:22.985Z,9.60
2023-05-20T19:12:26.137Z,8.98
2023-05-20T19:15:31.206Z,8.98
2023-05-20T19:18:33.959Z,8.57
2023-05-20T19:21:39.378Z,9.73
2023-05-20T19:24:42.243Z,9.33
2023-05-20T19:27:45.031Z,11.82
2023-05-20T19:30:49.855Z,10.23
2023-05-20T19:33:52.753Z,9.05
2023-05-20T19:36:56.785Z,8.60
2023-05-20T19:39:59.681Z,10.63
2023-05-20T19:43:02.508Z,9.05
2023-05-20T19:46:07.582Z,10.63
2023-05-20T19:49:10.513Z,10.85
2023-05-20T19:52:13.269Z,8.82
2023-05-20T19:55:16.431Z,9.30
2023-05-20T19:58:19.228Z,10.00
2023-05-20T20:01:23.386Z,9.27
2023-05-20T20:04:26.103Z,9.18
2023-05-20T20:07:29.033Z,10.48
2023-05-20T20:10:31.811Z,9.77
2023-05-20T20:13:34.559Z,9.80
2023-05-20T20:16:38.905Z,10.57
2023-05-20T20:19:42.189Z,9.82
2023-05-20T20:22:45.600Z,10.10
2023-05-20T20:25:50.532Z,10.60
2023-05-20T20:28:53.633Z,11.13
2023-05-20T20:31:59.233Z,10.52
2023-05-20T20:35:02.155Z,12.82
2023-05-20T20:38:09.629Z,10.40
2023-05-20T20:41:12.467Z,11.83
2023-05-20T20:44:18.704Z,13.05
2023-05-20T20:47:23.634Z,10.85
2023-05-20T20:50:26.549Z,11.73
2023-05-20T20:53:29.263Z,11.15
2023-05-20T20:56:36.718Z,12.33
2023-05-20T20:59:39.903Z,12.37
2023-05-20T21:02:44.549Z,11.10
2023-05-20T21:05:48.629Z,12.07
2023-05-20T21:08:53.073Z,13.27
2023-05-20T21:11:57.300Z,11.43
2023-05-20T21:15:00.402Z,11.80
2023-05-20T21:18:04.915Z,13.15
2023-05-20T21:21:12.132Z,13.57
2023-05-20T21:24:14.847Z,11.90
2023-05-20T21:27:17.850Z,12.47
2023-05-20T21:30:20.627Z,11.30
2023-05-20T21:33:25.235Z,11.23
2023-05-20T21:36:28.122Z,11.13
2023-05-20T21:39:30.849Z,12.30
2023-05-20T21:42:34.125Z,13.57
2023-05-20T21:45:37.008Z,12.30
2023-05-20T21:48:41.552Z,14.45
2023-05-20T21:51:44.341Z,12.82
2023-05-20T21:54:47.228Z,14.25
2023-05-20T21:57:50.150Z,13.80
2023-05-20T22:00:53.273Z,11.90
2023-05-20T22:03:57.628Z,15.23
2023-05-20T22:07:01.921Z,12.90
2023-05-20T22:10:05.317Z,13.20
2023-05-20T22:13:10.844Z,12.87
2023-05-20T22:16:14.396Z,12.73
2023-05-20T22:19:19.048Z,12.52
2023-05-20T22:22:21.929Z,13.80
2023-05-20T22:25:24.811Z,13.98
2023-05-20T22:28:27.597Z,13.00
2023-05-20T22:31:30.610Z,13.13
2023-05-20T22:34:34.756Z,12.35
2023-05-20T22:37:37.652Z,17.08
2023-05-20T22:40:43.273Z,13.65
2023-05-20T22:43:46.098Z,14.83
2023-05-20T22:46:49.030Z,11.83
2023-05-20T22:49:53.164Z,12.85
2023-05-20T22:52:56.018Z,15.05
2023-05-20T22:55:59.957Z,13.38
2023-05-20T22:59:03.154Z,15.27
2023-05-20T23:02:06.873Z,12.40
2023-05-20T23:05:11.844Z,15.18
2023-05-20T23:08:14.754Z,14.80
2023-05-20T23:11:17.769Z,15.38
2023-05-20T23:14:21.142Z,14.97
2023-05-20T23:17:24.030Z,14.87
2023-05-20T23:20:29.364Z,14.93
2023-05-20T23:23:32.437Z,15.73
2023-05-20T23:26:37.804Z,17.25
2023-05-20T23:29:40.813Z,15.70
2023-05-20T23:32:43.748Z,14.30
2023-05-20T23:35:48.052Z,16.25
2023-05-20T23:38:51.277Z,17.90
2023-05-20T23:41:54.203Z,15.82
2023-05-20T23:44:56.935Z,15.07
2023-05-20T23:48:01.334Z,14.97
2023-05-20T23:51:07.118Z,16.23
2023-05-20T23:54:09.889Z,16.05
2023-05-20T23:57:12.915Z,17.05
